Latest Weather Observations for Laverton

IDV60901

Issued at 3:01 am EST Thursday 29 September 2016 (issued every 10 minutes, with the page automatically refreshed every 10 minutes)

About weather observations | Map of Melbourne area stations | Latest observations for Melbourne area | Other Formats
Station Details ID: 087031 Name: LAVERTON RAAF Lat: -37.86 Lon: 144.76 Height: 20.1 m
Data from the previous 72 hours. | See also: Recent months at Laverton
Date/Time
EST
Temp
°C
App
Temp
°C
Dew
Point
°C
Rel
Hum
%
Delta-T
°C
Wind Press
QNH
hPa
Press
MSL
hPa
Rain since
9am
mm
Dir  Spd
km/h
Gust
km/h
Spd
kts
Gust
kts
29/03:00am 13.7 7.9 10.9 83 1.5 NNE 32 46 17 25 988.7 988.7 2.4
29/02:30am 13.7 7.4 10.9 83 1.5 NNE 35 57 19 31 989.5 989.5 2.2
29/02:05am 13.4 7.9 10.6 83 1.5 NNE 30 56 16 30 990.2 990.2 2.2
29/02:00am 13.2 8.0 10.4 83 1.5 NNE 28 43 15 23 990.6 990.6 2.2
29/01:30am 13.1 8.2 10.1 82 1.5 NNE 26 35 14 19 991.6 991.6 2.0
29/01:00am 13.0 9.3 10.2 83 1.5 NNE 20 30 11 16 992.7 992.7 1.6
29/12:30am 13.2 8.3 10.0 81 1.6 NNE 26 46 14 25 993.2 993.2 1.0
29/12:02am 14.0 7.6 9.4 74 2.4 NNE 33 52 18 28 993.8 993.8 0.4
29/12:00am 14.2 7.4 9.2 72 2.6 NE 35 52 19 28 993.7 993.7 0.2
 
Date/Time
EST
Temp
°C
App
Temp
°C
Dew
Point
°C
Rel
Hum
%
Delta-T
°C
Wind Press
QNH
hPa
Press
MSL
hPa
Rain since
9am
mm
Dir  Spd
km/h
Gust
km/h
Spd
kts
Gust
kts
28/11:39pm 16.0 10.1 7.7 58 4.2 NNE 28 50 15 27 994.6 994.6 0.0
28/11:30pm 16.0 10.9 7.5 57 4.2 NNE 24 35 13 19 994.9 994.9 0.0
28/11:00pm 16.1 10.2 7.6 57 4.3 NE 28 46 15 25 995.3 995.3 0.0
28/10:30pm 16.0 10.1 7.5 57 4.2 NNE 28 46 15 25 996.7 996.7 0.0
28/10:27pm 16.0 10.1 7.5 57 4.2 NE 28 46 15 25 996.8 996.8 0.0
28/10:00pm 15.8 10.3 7.6 58 4.1 NNE 26 39 14 21 997.9 997.9 0.0
28/09:51pm 15.7 9.8 7.7 59 4.0 NNE 28 46 15 25 997.9 997.9 0.0
28/09:30pm 15.4 10.3 7.7 60 3.8 NE 24 37 13 20 997.9 997.9 0.0
28/09:00pm 15.4 10.4 7.9 61 3.8 NE 24 35 13 19 998.7 998.7 0.0
28/08:30pm 15.4 10.0 7.9 61 3.8 NNE 26 37 14 20 999.4 999.4 0.0
28/08:00pm 15.3 10.6 7.8 61 3.8 NNE 22 32 12 17 999.6 999.6 0.0
28/07:30pm 15.2 10.6 8.0 62 3.6 NE 22 32 12 17 999.9 999.9 0.0
28/07:00pm 15.2 10.9 7.7 61 3.8 NE 20 28 11 15 1000.3 1000.3 0.0
28/06:30pm 15.3 10.6 7.8 61 3.7 NNE 22 33 12 18 1000.9 1000.9 0.0
28/06:00pm 15.6 10.1 7.4 58 4.1 NNE 26 41 14 22 1001.3 1001.3 0.0
28/05:30pm 15.7 10.2 7.5 58 4.1 NNE 26 41 14 22 1001.6 1001.6 0.0
28/05:00pm 16.0 10.1 7.5 57 4.3 NNE 28 39 15 21 1002.0 1002.0 0.0
28/04:30pm 16.1 11.0 7.6 57 4.3 N 24 35 13 19 1002.7 1002.7 0.0
28/04:00pm 16.6 11.9 7.8 56 4.5 N 22 41 12 22 1002.8 1002.8 0.0
28/03:30pm 17.1 11.6 7.7 54 4.7 N 26 43 14 23 1002.6 1002.6 0.0
28/03:00pm 17.3 11.8 7.6 53 4.9 NNE 26 41 14 22 1003.4 1003.4 0.0
28/02:34pm 17.1 10.9 7.7 54 4.7 NNE 30 50 16 27 1003.7 1003.7 0.0
28/02:30pm 17.7 11.6 8.3 54 4.8 N 30 44 16 24 1004.0 1004.0 0.0
28/02:00pm 17.4 11.2 7.7 53 4.9 NNE 30 44 16 24 1004.8 1004.8 0.0
28/01:30pm 17.5 11.4 8.4 55 4.7 NNE 30 41 16 22 1006.0 1006.0 0.0
28/01:00pm 17.4 12.1 8.5 56 4.6 NNE 26 44 14 24 1006.7 1006.7 0.0
28/12:30pm 17.1 11.9 8.8 58 4.3 NNE 26 35 14 19 1007.8 1007.8 0.0
28/12:00pm 17.2 12.8 9.1 59 4.2 N 22 32 12 17 1008.7 1008.8 0.0
28/11:30am 17.2 13.2 9.1 59 4.2 NNE 20 30 11 16 1009.7 1009.8 0.0
28/11:00am 16.6 12.5 8.8 60 4.0 NNE 20 30 11 16 1010.4 1010.5 0.0
28/10:30am 15.9 11.7 8.4 61 3.8 NNE 20 30 11 16 1010.9 1011.0 0.0
28/10:00am 14.8 10.6 7.6 62 3.6 N 19 26 10 14 1011.7 1011.7 0.0
28/09:30am 15.0 11.7 8.0 63 3.5 N 15 19 8 10 1011.7 1011.7 0.0
28/09:00am 13.7 10.4 7.9 68 2.9 N 15 22 8 12 1012.0 1012.0 0.4
28/08:30am 12.7 9.3 7.6 71 2.5 N 15 20 8 11 1012.4 1012.4 0.4
28/08:00am 11.5 8.5 7.8 78 1.8 N 13 20 7 11 1012.7 1012.7 0.4
28/07:30am 9.9 7.2 7.2 83 1.3 N 11 17 6 9 1012.7 1012.7 0.4
28/07:00am 8.3 4.5 5.8 84 1.1 N 15 20 8 11 1012.9 1012.9 0.4
28/06:30am 7.2 3.6 5.0 86 1.0 NNE 13 19 7 10 1012.8 1012.8 0.4
28/06:00am 7.0 3.4 5.0 87 0.9 N 13 17 7 9 1012.6 1012.6 0.4
28/05:30am 6.5 2.9 5.0 90 0.7 N 13 15 7 8 1012.5 1012.5 0.4
28/05:00am 6.0 3.1 4.6 91 0.6 N 9 11 5 6 1012.5 1012.5 0.4
28/04:30am 6.5 3.7 5.1 91 0.6 NNE 9 11 5 6 1012.4 1012.4 0.4
28/04:00am 6.7 3.9 5.3 91 0.6 NNE 9 11 5 6 1012.5 1012.5 0.4
28/03:30am 7.0 4.3 5.5 90 0.7 NNE 9 11 5 6 1012.5 1012.5 0.4
28/03:00am 7.1 4.4 5.6 90 0.7 NNE 9 13 5 7 1012.5 1012.5 0.4
28/02:30am 7.2 4.1 5.5 89 0.8 NNE 11 13 6 7 1012.5 1012.5 0.4
28/02:00am 6.9 4.2 5.4 90 0.7 N 9 11 5 6 1012.5 1012.5 0.4
28/01:30am 6.4 4.2 5.2 92 0.5 SSW 6 7 3 4 1012.6 1012.6 0.4
28/01:00am 6.6 4.4 5.4 92 0.5 NW 6 9 3 5 1012.8 1012.8 0.4
28/12:30am 7.2 4.9 5.5 89 0.8 NNW 7 9 4 5 1012.7 1012.7 0.4
28/12:00am 7.2 5.1 5.7 90 0.7 NNW 6 9 3 5 1012.7 1012.7 0.4
 
Date/Time
EST
Temp
°C
App
Temp
°C
Dew
Point
°C
Rel
Hum
%
Delta-T
°C
Wind Press
QNH
hPa
Press
MSL
hPa
Rain since
9am
mm
Dir  Spd
km/h
Gust
km/h
Spd
kts
Gust
kts
27/11:30pm 8.2 5.6 6.0 86 1.0 N 9 11 5 6 1012.6 1012.6 0.4
27/11:00pm 8.7 6.1 6.2 84 1.1 N 9 11 5 6 1012.7 1012.7 0.4
27/10:30pm 9.2 6.6 6.3 82 1.3 N 9 11 5 6 1013.0 1013.0 0.4
27/10:00pm 8.8 6.9 7.6 92 0.6 N 7 9 4 5 1013.1 1013.1 0.4
27/09:30pm 8.8 6.6 7.9 94 0.4 N 9 9 5 5 1013.2 1013.2 0.4
27/09:00pm 9.4 7.9 9.3 99 0.0 NE 7 11 4 6 1013.3 1013.3 0.4
27/08:30pm 9.2 7.6 8.9 98 0.1 ESE 7 9 4 5 1013.3 1013.3 0.4
27/08:00pm 10.3 8.9 9.5 95 0.4 ESE 7 9 4 5 1013.3 1013.3 0.4
27/07:30pm 10.4 8.9 9.3 93 0.5 ESE 7 9 4 5 1013.1 1013.1 0.4
27/07:00pm 10.9 9.4 9.0 88 0.9 ESE 7 7 4 4 1013.2 1013.2 0.4
27/06:30pm 11.5 9.6 8.9 84 1.3 ESE 9 13 5 7 1013.0 1013.0 0.4
27/06:00pm 13.5 10.6 6.4 62 3.4 SW 11 15 6 8 1012.8 1012.8 0.4
27/05:30pm 14.8 9.7 4.2 49 4.9 WSW 20 30 11 16 1012.5 1012.5 0.4
27/05:00pm 15.1 10.2 5.3 52 4.6 W 20 30 11 16 1012.2 1012.2 0.4
27/04:30pm 15.2 11.1 6.2 55 4.3 WSW 17 28 9 15 1012.0 1012.0 0.4
27/04:00pm 14.8 10.9 6.9 59 3.9 SW 17 24 9 13 1011.8 1011.8 0.4
27/03:30pm 15.3 10.7 6.6 56 4.2 WSW 20 28 11 15 1011.7 1011.7 0.4
27/03:00pm 14.6 10.6 8.3 66 3.2 WSW 19 26 10 14 1011.8 1011.8 0.4
27/02:30pm 14.6 8.9 8.3 66 3.2 WSW 28 37 15 20 1011.8 1011.8 0.4
27/02:00pm 13.7 9.1 9.7 77 2.1 WSW 24 35 13 19 1011.9 1011.9 0.4
27/01:30pm 13.1 7.3 9.5 79 1.8 W 30 44 16 24 1012.0 1012.0 0.4
27/01:00pm 13.8 7.6 9.5 75 2.2 WSW 32 43 17 23 1011.9 1011.9 0.4
27/12:56pm 13.5 8.0 9.2 75 2.2 WSW 28 43 15 23 1012.0 1012.0 0.4
27/12:42pm 12.6 7.4 10.3 86 1.2 WSW 28 41 15 22 1012.0 1012.0 0.4
27/12:30pm 13.3 8.6 10.7 84 1.4 W 26 35 14 19 1012.0 1012.0 0.4
27/12:22pm 13.2 8.8 10.4 83 1.5 W 24 39 13 21 1012.0 1012.0 0.4
27/12:04pm 12.2 7.0 10.4 89 0.9 W 28 46 15 25 1012.0 1012.0 0.4
27/12:00pm 12.4 6.8 10.3 87 1.1 W 30 46 16 25 1012.0 1012.0 0.2
27/11:58am 12.7 7.5 10.2 85 1.3 W 28 46 15 25 1011.9 1011.9 0.2
27/11:30am 14.6 10.4 7.6 63 3.5 W 19 26 10 14 1011.5 1011.6 0.0
27/11:00am 14.1 9.9 7.6 65 3.2 W 19 24 10 13 1011.7 1011.7 0.0
27/10:30am 13.7 9.7 8.1 69 2.8 W 19 30 10 16 1011.9 1011.9 0.0
27/10:00am 12.7 8.6 7.8 72 2.4 W 19 28 10 15 1012.0 1012.0 0.0
27/09:30am 12.1 8.4 7.8 75 2.1 W 17 24 9 13 1012.0 1012.0 0.0
27/09:00am 11.3 7.0 8.0 80 1.6 W 20 26 11 14 1011.8 1011.8 6.4
27/08:30am 10.3 6.0 7.0 80 1.6 WNW 19 26 10 14 1011.5 1011.6 6.4
27/08:00am 9.4 4.9 5.9 79 1.6 WNW 19 26 10 14 1011.2 1011.3 6.4
27/07:30am 7.9 4.6 6.2 89 0.8 NW 13 17 7 9 1011.1 1011.2 6.4
27/07:00am 6.2 3.0 5.2 93 0.4 NW 11 15 6 8 1010.7 1010.8 6.4
27/06:30am 4.7 1.4 4.3 97 0.2 NW 11 13 6 7 1010.5 1010.6 6.4
27/06:00am 4.5 0.7 3.8 95 0.3 NW 13 15 7 8 1010.1 1010.2 6.4
27/05:30am 4.9 1.1 4.0 94 0.4 NW 13 15 7 8 1009.8 1009.9 6.4
27/05:00am 5.5 1.4 4.3 92 0.5 WNW 15 17 8 9 1009.7 1009.8 6.4
27/04:30am 5.7 2.0 4.5 92 0.5 WNW 13 17 7 9 1009.6 1009.7 6.4
27/04:00am 6.1 2.5 5.1 93 0.4 NW 13 15 7 8 1009.4 1009.5 6.4
27/03:30am 6.6 3.0 5.2 91 0.6 WNW 13 17 7 9 1009.3 1009.4 6.4
27/03:00am 6.9 3.9 6.2 95 0.3 NW 11 13 6 7 1009.3 1009.4 6.4
27/02:30am 7.8 4.9 6.4 91 0.6 WNW 11 15 6 8 1009.3 1009.4 6.4
27/02:00am 8.5 5.2 6.6 88 0.9 W 13 19 7 10 1009.6 1009.7 6.2
27/01:30am 8.5 5.8 7.3 92 0.6 WNW 11 15 6 8 1009.7 1009.8 6.2
27/01:00am 8.4 6.1 7.5 94 0.4 NNW 9 13 5 7 1009.8 1009.9 6.0
27/12:30am 8.3 6.4 7.7 96 0.3 NNW 7 9 4 5 1009.8 1009.9 6.0
27/12:00am 8.1 5.9 7.7 97 0.2 N 9 11 5 6 1009.8 1009.9 5.8
 
Date/Time
EST
Temp
°C
App
Temp
°C
Dew
Point
°C
Rel
Hum
%
Delta-T
°C
Wind Press
QNH
hPa
Press
MSL
hPa
Rain since
9am
mm
Dir  Spd
km/h
Gust
km/h
Spd
kts
Gust
kts
26/11:30pm 7.9 6.0 7.5 97 0.2 N 7 9 4 5 1009.9 1010.0 5.8
26/11:00pm 8.1 7.2 7.7 97 0.2 NNE 2 7 1 4 1010.0 1010.1 5.8
26/10:30pm 8.2 6.4 7.8 97 0.2 NE 7 9 4 5 1009.8 1009.9 5.8
26/10:00pm 8.0 5.0 7.7 98 0.1 N 13 19 7 10 1010.6 1010.7 5.8
26/09:30pm 8.0 5.7 7.4 96 0.3 NW 9 17 5 9 1010.7 1010.8 5.6
26/09:02pm 8.1 4.7 7.7 97 0.2 W 15 22 8 12 1011.0 1011.1 5.2
26/09:00pm 8.1 4.7 7.7 97 0.2 W 15 22 8 12 1011.0 1011.1 5.0
26/08:30pm 8.0 2.8 7.1 94 0.4 WSW 24 35 13 19 1010.7 1010.8 3.0
26/08:26pm 8.1 2.5 7.0 93 0.5 WSW 26 39 14 21 1010.7 1010.8 2.4
26/08:07pm 9.9 5.8 8.0 88 0.9 WSW 19 46 10 25 1010.4 1010.5 1.6
26/08:00pm 10.5 9.3 9.7 95 0.4 NNW 6 9 3 5 1009.7 1009.8 1.6
26/07:30pm 10.7 10.6 9.5 92 0.6 CALM 0 0 0 0 1009.4 1009.5 1.6
26/07:25pm 10.7 10.2 9.3 91 0.7 NNW 2 6 1 3 1009.5 1009.6 1.6
26/07:08pm 10.8 8.9 9.2 90 0.8 NNW 9 13 5 7 1009.6 1009.7 1.4
26/07:00pm 10.9 8.6 9.0 88 0.9 NW 11 15 6 8 1009.7 1009.8 1.2
26/06:30pm 11.0 9.1 9.1 88 0.9 NNW 9 13 5 7 1009.4 1009.5 1.0
26/06:21pm 11.0 8.2 8.4 84 1.3 NW 13 17 7 9 1009.6 1009.7 1.0
26/06:04pm 10.9 3.9 8.3 84 1.3 NW 35 54 19 29 1009.5 1009.6 0.6
26/06:01pm 11.2 3.7 7.9 80 1.6 NW 37 54 20 29 1009.4 1009.5 0.4
26/06:00pm 11.4 4.3 8.1 80 1.6 NW 35 54 19 29 1009.4 1009.5 0.2
26/05:54pm 13.4 8.6 7.4 67 2.9 NNW 22 50 12 27 1009.1 1009.2 0.0
26/05:30pm 14.9 13.0 6.7 58 4.0 NNE 6 13 3 7 1008.5 1008.6 0.0
26/05:00pm 14.8 12.3 6.6 58 4.0 NNE 9 11 5 6 1008.2 1008.3 0.0
26/04:30pm 15.1 12.1 6.1 55 4.3 NE 11 15 6 8 1008.3 1008.4 0.0
26/04:00pm 14.8 11.4 5.9 55 4.3 N 13 19 7 10 1008.7 1008.8 0.0
26/03:30pm 15.9 12.0 6.9 55 4.4 NW 17 24 9 13 1008.9 1009.0 0.0
26/03:00pm 16.2 10.2 5.5 49 5.1 NW 26 35 14 19 1009.1 1009.2 0.0
26/02:30pm 16.9 11.0 5.8 48 5.4 NNW 26 39 14 21 1009.1 1009.2 0.0
26/02:00pm 15.8 12.5 4.5 47 5.3 NNW 11 17 6 9 1009.4 1009.5 0.0
26/01:30pm 15.5 11.9 4.8 49 5.0 N 13 19 7 10 1009.7 1009.8 0.0
26/01:00pm 16.3 12.3 5.0 47 5.4 N 15 20 8 11 1010.0 1010.1 0.0
26/12:30pm 16.8 11.5 5.1 46 5.6 NW 22 32 12 17 1010.4 1010.5 0.0
26/12:00pm 15.7 11.7 6.7 55 4.4 NW 17 30 9 16 1011.1 1011.2 0.0
26/11:30am 15.3 11.6 6.1 54 4.4 NW 15 20 8 11 1011.5 1011.6 0.0
26/11:00am 15.3 11.3 6.6 56 4.2 NW 17 26 9 14 1011.9 1011.9 0.0
26/10:30am 14.8 10.5 5.1 52 4.6 NNW 17 24 9 13 1012.4 1012.4 0.0
26/10:00am 14.3 10.3 4.9 53 4.4 NW 15 24 8 13 1012.6 1012.6 0.0
26/09:30am 14.0 10.6 6.1 59 3.8 NW 13 22 7 12 1012.8 1012.8 0.0
26/09:00am 12.9 9.5 7.6 70 2.6 NW 15 20 8 11 1013.0 1013.0 0.4
26/08:30am 12.0 9.3 7.3 73 2.3 NNW 11 15 6 8 1013.0 1013.0 0.4
26/08:00am 11.0 8.8 7.9 81 1.5 N 9 11 5 6 1013.1 1013.1 0.4
26/07:30am 9.6 7.9 8.5 93 0.5 N 7 9 4 5 1013.3 1013.3 0.4
26/07:00am 8.6 6.9 8.2 97 0.2 NNE 7 9 4 5 1013.1 1013.1 0.2
26/06:30am 8.3 6.5 7.9 97 0.2 NNE 7 11 4 6 1013.2 1013.2 0.2
26/06:00am 8.5 6.3 7.9 96 0.3 N 9 13 5 7 1012.9 1012.9 0.2
26/05:30am 8.8 6.3 8.2 96 0.3 N 11 13 6 7 1012.8 1012.8 0.2
26/05:00am 8.9 6.5 8.5 97 0.2 NNE 11 13 6 7 1012.7 1012.7 0.2
26/04:30am 8.8 7.1 8.2 96 0.3 NNW 7 9 4 5 1012.9 1012.9 0.2
26/04:00am 8.9 8.1 8.0 94 0.4 NW 2 7 1 4 1013.0 1013.0 0.2
26/03:30am 8.9 8.4 7.7 92 0.6 CALM 0 0 0 0 1013.0 1013.0 0.2

Latest Capital City Observations: Canberra | Sydney | Melbourne | Brisbane | Adelaide | Perth | Hobart | Darwin

Other Formats:

Comma delimited format used in spreadsheet applications
http://www.bom.gov.au/fwo/IDV60901/IDV60901.94865.axf

JavaScript Object Notation format (JSON) in row-major order
http://www.bom.gov.au/fwo/IDV60901/IDV60901.94865.json